Time;durP1;ratioP1;P1;durP2;ratioP2;P2;SDS_P1;SDS_P2;PMS_P1;PMS_P2;Temp;Humidity;BMP_temperature;BMP_pressure;BME280_temperature;BME280_humidity;BME280_pressure;Samples;Min_cycle;Max_cycle;Signal;HPM_P1;HPM_P2
2023/04/25 00:01:59;;;;;;;;;4.00;4.00;;;;;;;;4977687;28;45437;-77
2023/04/25 00:04:25;;;;;;;;;4.00;4.00;;;;;;;;4978830;28;45270;-78
2023/04/25 00:06:52;;;;;;;;;4.00;4.00;;;;;;;;4978501;28;45294;-77
2023/04/25 00:09:17;;;;;;;;;5.50;5.00;;;;;;;;4978976;28;45417;-77
2023/04/25 00:11:42;;;;;;;;;6.50;4.00;;;;;;;;4978432;28;45416;-77
2023/04/25 00:14:07;;;;;;;;;4.50;3.00;;;;;;;;4978559;28;45387;-77
2023/04/25 00:16:34;;;;;;;;;5.00;5.00;;;;;;;;4977116;28;46332;-77
2023/04/25 00:19:01;;;;;;;;;7.00;4.00;;;;;;;;4978356;28;45302;-77
2023/04/25 00:21:26;;;;;;;;;4.00;4.00;;;;;;;;4977065;28;45401;-77
2023/04/25 00:23:52;;;;;;;;;5.25;5.25;;;;;;;;4977397;28;45337;-77
2023/04/25 00:26:17;;;;;;;;;6.00;3.75;;;;;;;;4978361;28;46285;-76
2023/04/25 00:28:43;;;;;;;;;8.00;6.00;;;;;;;;4978277;28;45259;-77
2023/04/25 00:31:08;;;;;;;;;5.25;5.25;;;;;;;;4978930;28;45298;-77
2023/04/25 00:33:33;;;;;;;;;3.50;3.00;;;;;;;;4978967;28;45427;-77
2023/04/25 00:35:58;;;;;;;;;3.25;3.25;;;;;;;;4978804;28;46400;-77
2023/04/25 00:38:24;;;;;;;;;3.25;3.25;;;;;;;;4978895;28;45314;-77
2023/04/25 00:40:49;;;;;;;;;5.75;5.75;;;;;;;;4978296;28;45382;-76
2023/04/25 00:43:14;;;;;;;;;3.50;3.50;;;;;;;;4978688;28;45339;-77
2023/04/25 00:45:40;;;;;;;;;4.25;4.25;;;;;;;;4978668;28;46237;-78
2023/04/25 00:48:05;;;;;;;;;4.75;4.00;;;;;;;;4975408;28;45511;-77
2023/04/25 00:50:33;;;;;;;;;4.75;4.75;;;;;;;;4959121;28;45390;-77
2023/04/25 00:52:58;;;;;;;;;6.00;4.75;;;;;;;;4978484;28;45530;-77
2023/04/25 00:55:23;;;;;;;;;6.00;5.00;;;;;;;;4977956;28;46134;-78
2023/04/25 00:57:48;;;;;;;;;5.00;5.00;;;;;;;;4978217;28;45424;-77
2023/04/25 01:00:14;;;;;;;;;7.50;5.75;;;;;;;;4978181;28;45558;-77
2023/04/25 01:02:40;;;;;;;;;5.25;5.25;;;;;;;;4976930;28;45421;-77
2023/04/25 01:05:06;;;;;;;;;5.50;5.50;;;;;;;;4978133;28;46471;-77
2023/04/25 01:07:31;;;;;;;;;5.00;5.00;;;;;;;;4978112;28;45464;-77
2023/04/25 01:09:56;;;;;;;;;4.00;3.00;;;;;;;;4978024;28;45317;-76
2023/04/25 01:12:22;;;;;;;;;4.00;4.00;;;;;;;;4976703;28;45588;-77
2023/04/25 01:14:47;;;;;;;;;4.50;3.75;;;;;;;;4977478;28;46234;-77
2023/04/25 01:17:12;;;;;;;;;5.25;5.25;;;;;;;;4977947;28;45389;-77
2023/04/25 01:19:38;;;;;;;;;5.25;5.00;;;;;;;;4977805;28;45763;-77
2023/04/25 01:22:03;;;;;;;;;4.00;4.00;;;;;;;;4977983;28;45395;-77
2023/04/25 01:24:29;;;;;;;;;5.00;5.00;;;;;;;;4977794;28;45437;-77
2023/04/25 01:26:56;;;;;;;;;4.75;3.75;;;;;;;;4977565;28;45463;-77
2023/04/25 01:29:21;;;;;;;;;5.75;4.75;;;;;;;;4977814;28;45431;-77
2023/04/25 01:31:47;;;;;;;;;7.00;7.00;;;;;;;;4977903;28;45351;-76
2023/04/25 01:34:12;;;;;;;;;6.00;4.75;;;;;;;;4977643;28;45493;-76
2023/04/25 01:36:37;;;;;;;;;7.00;7.00;;;;;;;;4977659;28;45404;-77
2023/04/25 01:39:02;;;;;;;;;3.75;3.75;;;;;;;;4977642;28;45544;-76
2023/04/25 01:41:28;;;;;;;;;4.75;4.00;;;;;;;;4976206;28;45397;-78
2023/04/25 01:43:53;;;;;;;;;4.00;4.00;;;;;;;;4977452;28;47185;-77
2023/04/25 01:46:18;;;;;;;;;7.75;5.25;;;;;;;;4977217;28;45436;-77
2023/04/25 01:48:44;;;;;;;;;3.75;3.75;;;;;;;;4967958;28;45337;-77
2023/04/25 01:51:11;;;;;;;;;9.00;9.00;;;;;;;;4957852;28;45428;-77
2023/04/25 01:53:36;;;;;;;;;8.00;7.75;;;;;;;;4957677;28;45469;-77
2023/04/25 01:56:01;;;;;;;;;5.75;5.50;;;;;;;;4970415;28;45472;-77
2023/04/25 01:58:26;;;;;;;;;10.75;6.25;;;;;;;;4977578;28;45235;-77
2023/04/25 02:00:52;;;;;;;;;8.50;6.50;;;;;;;;4977303;28;45446;-76
2023/04/25 02:03:17;;;;;;;;;5.00;4.00;;;;;;;;4977257;28;47151;-76
2023/04/25 02:05:42;;;;;;;;;8.50;6.25;;;;;;;;4977292;28;45250;-76
2023/04/25 02:08:08;;;;;;;;;5.00;3.75;;;;;;;;4977149;28;45306;-77
2023/04/25 02:10:34;;;;;;;;;12.00;9.00;;;;;;;;4977269;28;45326;-77
2023/04/25 02:12:59;;;;;;;;;10.25;8.00;;;;;;;;4977096;28;45544;-76
2023/04/25 02:15:24;;;;;;;;;9.25;8.25;;;;;;;;4976581;28;45389;-76
2023/04/25 02:17:50;;;;;;;;;6.00;6.00;;;;;;;;4977297;28;45345;-77
2023/04/25 02:20:15;;;;;;;;;6.50;6.25;;;;;;;;4977009;28;45398;-76
2023/04/25 02:22:41;;;;;;;;;6.00;5.00;;;;;;;;4976404;28;45411;-77
2023/04/25 02:25:07;;;;;;;;;8.25;7.00;;;;;;;;4977172;28;45547;-76
2023/04/25 02:27:32;;;;;;;;;6.00;6.00;;;;;;;;4976845;28;45493;-77
2023/04/25 02:29:57;;;;;;;;;6.50;6.00;;;;;;;;4977226;28;45439;-76
2023/04/25 02:32:23;;;;;;;;;6.00;5.25;;;;;;;;4976755;28;46335;-77
2023/04/25 02:34:48;;;;;;;;;7.50;7.00;;;;;;;;4976915;28;45440;-77
2023/04/25 02:37:13;;;;;;;;;10.75;7.00;;;;;;;;4977565;28;45396;-77
2023/04/25 02:39:39;;;;;;;;;10.75;6.75;;;;;;;;4977321;28;45413;-76
2023/04/25 02:42:04;;;;;;;;;7.75;6.75;;;;;;;;4977488;28;45441;-76
2023/04/25 02:44:29;;;;;;;;;9.75;6.25;;;;;;;;4977602;28;45743;-77
2023/04/25 02:46:54;;;;;;;;;8.50;6.75;;;;;;;;4976527;28;45337;-77
2023/04/25 02:49:20;;;;;;;;;10.00;8.25;;;;;;;;4963801;28;45357;-77
2023/04/25 02:51:45;;;;;;;;;11.00;10.00;;;;;;;;4956566;28;45408;-77
2023/04/25 02:54:10;;;;;;;;;7.00;5.50;;;;;;;;4957021;28;45449;-76
2023/04/25 02:56:35;;;;;;;;;7.00;7.00;;;;;;;;4974235;28;45409;-77
2023/04/25 02:59:00;;;;;;;;;5.50;5.50;;;;;;;;4976448;28;45516;-76
2023/04/25 03:01:26;;;;;;;;;13.25;7.00;;;;;;;;4975913;28;46301;-74
2023/04/25 03:03:51;;;;;;;;;7.25;7.00;;;;;;;;4976414;28;45459;-74
2023/04/25 03:06:16;;;;;;;;;10.50;10.25;;;;;;;;4976349;28;45407;-73
2023/04/25 03:08:41;;;;;;;;;9.00;8.00;;;;;;;;4974888;28;45536;-74
2023/04/25 03:11:07;;;;;;;;;7.75;7.00;;;;;;;;4976308;28;45963;-76
2023/04/25 03:13:32;;;;;;;;;9.25;7.25;;;;;;;;4976271;28;45290;-76
2023/04/25 03:15:57;;;;;;;;;9.50;9.50;;;;;;;;4976278;28;45250;-76
2023/04/25 03:18:22;;;;;;;;;9.75;8.75;;;;;;;;4976107;28;45471;-76
2023/04/25 03:20:48;;;;;;;;;7.00;7.00;;;;;;;;4974319;28;46442;-77
2023/04/25 03:23:13;;;;;;;;;7.25;7.25;;;;;;;;4976156;28;45563;-77
2023/04/25 03:25:38;;;;;;;;;11.75;9.50;;;;;;;;4975266;28;45441;-77
2023/04/25 03:28:03;;;;;;;;;6.00;6.00;;;;;;;;4974564;28;45525;-77
2023/04/25 03:30:28;;;;;;;;;9.50;6.50;;;;;;;;4975944;28;45350;-76
2023/04/25 03:32:54;;;;;;;;;10.50;8.75;;;;;;;;4963769;28;45329;-76
2023/04/25 03:35:20;;;;;;;;;11.25;9.00;;;;;;;;4956672;28;45240;-77
2023/04/25 03:37:45;;;;;;;;;10.25;9.00;;;;;;;;4955981;28;45397;-77
2023/04/25 03:40:10;;;;;;;;;7.75;6.25;;;;;;;;4955686;28;46290;-77
2023/04/25 03:42:36;;;;;;;;;9.00;8.25;;;;;;;;4957331;28;45209;-77
2023/04/25 03:45:01;;;;;;;;;9.00;9.00;;;;;;;;4975755;28;45376;-76
2023/04/25 03:47:26;;;;;;;;;7.25;7.25;;;;;;;;4976125;28;45324;-77
2023/04/25 03:49:51;;;;;;;;;11.25;9.00;;;;;;;;4958441;28;46150;-77
2023/04/25 03:52:17;;;;;;;;;10.00;9.50;;;;;;;;4954881;28;45378;-76
2023/04/25 03:54:42;;;;;;;;;11.25;10.25;;;;;;;;4956489;28;45318;-76
2023/04/25 03:57:07;;;;;;;;;10.00;8.75;;;;;;;;4956341;28;45555;-77
2023/04/25 03:59:32;;;;;;;;;10.00;8.75;;;;;;;;4965936;28;45437;-77
2023/04/25 04:01:57;;;;;;;;;9.25;8.75;;;;;;;;4974310;28;45603;-77
2023/04/25 04:04:23;;;;;;;;;10.75;9.50;;;;;;;;4975537;28;45325;-76
2023/04/25 04:06:48;;;;;;;;;9.50;9.00;;;;;;;;4975505;28;45439;-76
2023/04/25 04:09:13;;;;;;;;;12.50;9.25;;;;;;;;4975681;28;46286;-76
2023/04/25 04:11:39;;;;;;;;;10.75;10.25;;;;;;;;4974013;28;45408;-76
2023/04/25 04:14:07;;;;;;;;;15.00;14.50;;;;;;;;4974476;28;45439;-77
2023/04/25 04:16:32;;;;;;;;;11.25;11.25;;;;;;;;4975520;28;45322;-78
2023/04/25 04:18:57;;;;;;;;;11.75;11.75;;;;;;;;4975165;28;47031;-76
2023/04/25 04:21:23;;;;;;;;;12.50;9.75;;;;;;;;4975431;28;45249;-74
2023/04/25 04:23:48;;;;;;;;;11.00;11.00;;;;;;;;4975288;28;45403;-75
2023/04/25 04:26:15;;;;;;;;;9.50;7.75;;;;;;;;4975473;28;45366;-74
2023/04/25 04:28:40;;;;;;;;;9.50;5.50;;;;;;;;4974830;28;46048;-75
2023/04/25 04:31:07;;;;;;;;;11.00;9.00;;;;;;;;4973529;28;45463;-75
2023/04/25 04:33:32;;;;;;;;;14.50;10.75;;;;;;;;4975260;28;45396;-75
2023/04/25 04:35:57;;;;;;;;;12.75;11.50;;;;;;;;4975113;28;45441;-75
2023/04/25 04:38:23;;;;;;;;;16.00;13.00;;;;;;;;4977774;28;46090;-74
2023/04/25 04:40:50;;;;;;;;;11.00;10.00;;;;;;;;4977966;28;45490;-75
2023/04/25 04:43:16;;;;;;;;;10.50;9.25;;;;;;;;4978633;28;45419;-75
2023/04/25 04:45:42;;;;;;;;;14.25;11.50;;;;;;;;4978425;28;45445;-76
2023/04/25 04:48:08;;;;;;;;;12.25;11.75;;;;;;;;4974472;28;45411;-74
2023/04/25 04:50:33;;;;;;;;;12.75;11.00;;;;;;;;4957494;28;45621;-75
2023/04/25 04:52:59;;;;;;;;;13.25;12.00;;;;;;;;4958958;28;45502;-75
2023/04/25 04:55:24;;;;;;;;;7.50;6.00;;;;;;;;4958996;28;45426;-75
2023/04/25 04:57:50;;;;;;;;;14.25;11.00;;;;;;;;4958821;28;45341;-75
2023/04/25 05:00:15;;;;;;;;;13.75;11.50;;;;;;;;4973729;28;45437;-75
2023/04/25 05:02:40;;;;;;;;;17.25;11.75;;;;;;;;4976675;28;45293;-74
2023/04/25 05:05:06;;;;;;;;;14.25;12.00;;;;;;;;4978268;28;45401;-75
2023/04/25 05:07:31;;;;;;;;;11.75;11.00;;;;;;;;4978011;28;45505;-75
2023/04/25 05:09:56;;;;;;;;;13.25;13.00;;;;;;;;4978092;28;45383;-75
2023/04/25 05:12:21;;;;;;;;;9.00;9.00;;;;;;;;4978045;28;45409;-75
2023/04/25 05:14:47;;;;;;;;;13.25;11.50;;;;;;;;4976790;28;45358;-74
2023/04/25 05:17:12;;;;;;;;;15.75;14.75;;;;;;;;4977706;28;45485;-75
2023/04/25 05:19:37;;;;;;;;;12.00;9.75;;;;;;;;4976352;28;46099;-75
2023/04/25 05:22:03;;;;;;;;;15.00;13.00;;;;;;;;4978036;28;45314;-74
2023/04/25 05:24:28;;;;;;;;;11.50;8.25;;;;;;;;4978005;28;45383;-76
2023/04/25 05:26:53;;;;;;;;;15.00;11.00;;;;;;;;4976400;28;46187;-75
2023/04/25 05:29:18;;;;;;;;;12.00;12.00;;;;;;;;4977661;28;45358;-75
2023/04/25 05:31:44;;;;;;;;;12.50;12.25;;;;;;;;4977504;28;45424;-74
2023/04/25 05:34:09;;;;;;;;;14.25;13.25;;;;;;;;4977941;28;45361;-75
2023/04/25 05:36:35;;;;;;;;;14.00;11.25;;;;;;;;4977555;28;46072;-75
2023/04/25 05:39:00;;;;;;;;;16.75;15.00;;;;;;;;4977415;28;45414;-75
2023/04/25 05:41:25;;;;;;;;;22.75;18.25;;;;;;;;4977728;28;45464;-75
2023/04/25 05:43:50;;;;;;;;;15.75;12.25;;;;;;;;4977987;28;45288;-75
2023/04/25 05:46:18;;;;;;;;;15.25;13.50;;;;;;;;4977688;28;45489;-75
2023/04/25 05:48:44;;;;;;;;;14.25;11.75;;;;;;;;4968963;28;45375;-76
2023/04/25 05:51:09;;;;;;;;;16.25;13.00;;;;;;;;4959552;28;45278;-74
2023/04/25 05:53:35;;;;;;;;;17.75;15.00;;;;;;;;4958946;28;45456;-76
2023/04/25 05:56:01;;;;;;;;;10.25;10.25;;;;;;;;4959638;28;46092;-74
2023/04/25 05:58:26;;;;;;;;;14.25;14.25;;;;;;;;4958227;28;45386;-75
2023/04/25 06:00:51;;;;;;;;;18.50;14.25;;;;;;;;4957598;28;45426;-75
2023/04/25 06:03:16;;;;;;;;;15.00;12.75;;;;;;;;4964026;28;45455;-75
2023/04/25 06:05:42;;;;;;;;;16.50;15.00;;;;;;;;4977079;28;45413;-75
2023/04/25 06:08:07;;;;;;;;;16.50;16.00;;;;;;;;4976813;28;45496;-75
2023/04/25 06:10:33;;;;;;;;;13.25;13.25;;;;;;;;4977228;28;45460;-76
2023/04/25 06:12:58;;;;;;;;;15.00;13.75;;;;;;;;4977286;28;45415;-74
2023/04/25 06:15:23;;;;;;;;;12.00;12.00;;;;;;;;4976498;28;46309;-76
2023/04/25 06:17:49;;;;;;;;;10.25;6.75;;;;;;;;4977068;28;45654;-76
2023/04/25 06:20:14;;;;;;;;;8.25;8.25;;;;;;;;4977019;28;45627;-76
2023/04/25 06:22:39;;;;;;;;;14.75;11.25;;;;;;;;4976960;28;45942;-76
2023/04/25 06:25:04;;;;;;;;;9.25;8.00;;;;;;;;4977114;28;45356;-75
2023/04/25 06:27:30;;;;;;;;;7.75;7.75;;;;;;;;4974972;28;45862;-76
2023/04/25 06:29:55;;;;;;;;;9.50;9.50;;;;;;;;4975542;28;45446;-75
2023/04/25 06:32:20;;;;;;;;;7.75;7.75;;;;;;;;4977075;28;45468;-76
2023/04/25 06:34:45;;;;;;;;;7.25;7.25;;;;;;;;4976688;28;46230;-76
2023/04/25 06:37:11;;;;;;;;;12.00;8.50;;;;;;;;4976742;28;45381;-75
2023/04/25 06:39:36;;;;;;;;;10.00;10.00;;;;;;;;4976513;28;45483;-75
2023/04/25 06:42:01;;;;;;;;;10.25;9.25;;;;;;;;4976592;28;45493;-75
2023/04/25 06:44:29;;;;;;;;;7.25;5.75;;;;;;;;4976448;28;45555;-75
2023/04/25 06:46:54;;;;;;;;;12.00;10.25;;;;;;;;4970761;28;45499;-75
2023/04/25 06:49:19;;;;;;;;;8.00;7.75;;;;;;;;4969798;28;45461;-76
2023/04/25 06:51:45;;;;;;;;;11.25;9.50;;;;;;;;4976695;28;45351;-76
2023/04/25 06:54:10;;;;;;;;;15.00;14.00;;;;;;;;4976328;28;45362;-76
2023/04/25 06:56:35;;;;;;;;;15.25;12.50;;;;;;;;4976639;28;45416;-76
2023/04/25 06:59:00;;;;;;;;;12.25;11.50;;;;;;;;4976557;28;45270;-75
2023/04/25 07:01:26;;;;;;;;;12.00;11.50;;;;;;;;4975144;28;45206;-76
2023/04/25 07:03:51;;;;;;;;;16.00;14.00;;;;;;;;4976332;28;46192;-76
2023/04/25 07:06:16;;;;;;;;;17.50;17.00;;;;;;;;4976325;28;45639;-77
2023/04/25 07:08:41;;;;;;;;;18.50;16.75;;;;;;;;4976875;28;45419;-77
2023/04/25 07:11:06;;;;;;;;;16.75;14.50;;;;;;;;4975163;28;45470;-76
2023/04/25 07:13:32;;;;;;;;;21.25;19.25;;;;;;;;4974555;28;45936;-76
2023/04/25 07:15:57;;;;;;;;;18.75;17.75;;;;;;;;4976174;28;45248;-75
2023/04/25 07:18:22;;;;;;;;;18.00;16.00;;;;;;;;4976131;28;45334;-76
2023/04/25 07:20:47;;;;;;;;;12.75;12.25;;;;;;;;4976120;28;45393;-76
2023/04/25 07:23:12;;;;;;;;;16.00;15.25;;;;;;;;4974393;28;47244;-76
2023/04/25 07:25:38;;;;;;;;;16.75;15.75;;;;;;;;4975998;28;45438;-76
2023/04/25 07:28:04;;;;;;;;;15.00;15.00;;;;;;;;4975789;28;45369;-76
2023/04/25 07:30:29;;;;;;;;;17.00;16.50;;;;;;;;4974813;28;45367;-77
2023/04/25 07:32:55;;;;;;;;;15.00;12.75;;;;;;;;4975954;28;47423;-78
2023/04/25 07:35:20;;;;;;;;;13.25;13.25;;;;;;;;4975837;28;45302;-77
2023/04/25 07:37:45;;;;;;;;;17.25;16.50;;;;;;;;4976228;28;45296;-77
2023/04/25 07:40:10;;;;;;;;;17.25;16.00;;;;;;;;4975670;28;45306;-75
2023/04/25 07:42:36;;;;;;;;;17.25;15.75;;;;;;;;4975474;28;46201;-76
2023/04/25 07:45:02;;;;;;;;;16.50;16.50;;;;;;;;4975729;28;45346;-75
2023/04/25 07:47:27;;;;;;;;;17.00;15.50;;;;;;;;4975350;28;45444;-75
2023/04/25 07:49:52;;;;;;;;;16.50;15.75;;;;;;;;4958008;28;45508;-75
2023/04/25 07:52:18;;;;;;;;;22.00;20.00;;;;;;;;4955906;28;46346;-75
2023/04/25 07:54:43;;;;;;;;;19.25;13.75;;;;;;;;4956125;28;45319;-75
2023/04/25 07:57:08;;;;;;;;;18.50;16.75;;;;;;;;4963231;28;45308;-75
2023/04/25 07:59:33;;;;;;;;;16.50;12.50;;;;;;;;4975587;28;45291;-75
2023/04/25 08:02:00;;;;;;;;;19.25;16.50;;;;;;;;4975316;28;45301;-74
2023/04/25 08:04:25;;;;;;;;;13.75;12.75;;;;;;;;4974113;28;45472;-76
2023/04/25 08:06:51;;;;;;;;;14.25;13.00;;;;;;;;4975327;28;45429;-76
2023/04/25 08:09:16;;;;;;;;;19.25;15.75;;;;;;;;4975314;28;45540;-76
2023/04/25 08:11:42;;;;;;;;;15.00;9.25;;;;;;;;4975122;28;47161;-76
2023/04/25 08:14:07;;;;;;;;;14.75;14.00;;;;;;;;4978678;28;45730;-76
2023/04/25 08:16:33;;;;;;;;;11.75;10.50;;;;;;;;4979055;28;45451;-77
2023/04/25 08:18:59;;;;;;;;;14.50;13.00;;;;;;;;4978728;28;45373;-75
2023/04/25 08:21:25;;;;;;;;;14.75;12.00;;;;;;;;4978484;28;46359;-76
2023/04/25 08:23:50;;;;;;;;;13.75;13.25;;;;;;;;4978405;28;45448;-76
2023/04/25 08:26:15;;;;;;;;;10.00;10.00;;;;;;;;4978655;28;45396;-76
2023/04/25 08:28:41;;;;;;;;;13.50;11.75;;;;;;;;4978389;28;45373;-76
2023/04/25 08:31:06;;;;;;;;;14.25;11.25;;;;;;;;4978723;28;45437;-75
2023/04/25 08:33:32;;;;;;;;;14.25;11.75;;;;;;;;4978502;28;45391;-76
2023/04/25 08:35:57;;;;;;;;;10.75;9.50;;;;;;;;4978326;28;45361;-74
2023/04/25 08:38:23;;;;;;;;;13.00;13.00;;;;;;;;4978636;28;45338;-75
2023/04/25 08:40:51;;;;;;;;;11.50;11.00;;;;;;;;4977994;28;45396;-75
2023/04/25 08:43:18;;;;;;;;;10.00;10.00;;;;;;;;4976867;28;46241;-75
2023/04/25 08:45:44;;;;;;;;;8.50;8.50;;;;;;;;4977195;28;45361;-75
2023/04/25 08:48:13;;;;;;;;;12.00;11.50;;;;;;;;4974845;28;45325;-74
2023/04/25 08:50:48;;;;;;;;;12.25;10.50;;;;;;;;4959104;28;45378;-75
2023/04/25 08:53:18;;;;;;;;;15.75;13.75;;;;;;;;4958978;28;45331;-75
2023/04/25 08:55:43;;;;;;;;;9.75;8.25;;;;;;;;4971328;28;45460;-76
2023/04/25 08:58:09;;;;;;;;;10.00;10.00;;;;;;;;4979800;28;45341;-76
2023/04/25 09:00:35;;;;;;;;;11.75;10.50;;;;;;;;4980252;28;45515;-76
2023/04/25 09:03:01;;;;;;;;;14.75;11.50;;;;;;;;4980684;28;45350;-76
2023/04/25 09:05:28;;;;;;;;;11.00;11.00;;;;;;;;4979979;28;45317;-77
2023/04/25 09:07:53;;;;;;;;;7.75;7.75;;;;;;;;4979755;28;45319;-77
2023/04/25 09:10:18;;;;;;;;;9.75;9.25;;;;;;;;4977637;28;45444;-78
2023/04/25 09:12:44;;;;;;;;;9.50;9.50;;;;;;;;4978171;28;45281;-75
2023/04/25 09:15:10;;;;;;;;;17.25;15.50;;;;;;;;4978013;28;45176;-74
2023/04/25 09:17:40;;;;;;;;;13.50;12.50;;;;;;;;4977843;28;45633;-74
2023/04/25 09:20:12;;;;;;;;;15.00;15.00;;;;;;;;4977105;28;45516;-75
2023/04/25 09:22:38;;;;;;;;;13.50;10.25;;;;;;;;4977730;28;45456;-75
2023/04/25 09:25:07;;;;;;;;;8.75;7.25;;;;;;;;4977044;28;45311;-75
2023/04/25 09:27:32;;;;;;;;;8.25;8.25;;;;;;;;4977609;28;45246;-74
2023/04/25 09:30:01;;;;;;;;;12.75;8.25;;;;;;;;4977104;28;45262;-75
2023/04/25 09:32:26;;;;;;;;;9.25;6.50;;;;;;;;4977983;28;45524;-74
2023/04/25 09:34:56;;;;;;;;;10.00;10.00;;;;;;;;4977573;28;45421;-74
2023/04/25 09:37:28;;;;;;;;;6.50;6.50;;;;;;;;4977370;28;45348;-75
2023/04/25 09:40:05;;;;;;;;;6.75;6.75;;;;;;;;4977661;28;45383;-74
2023/04/25 09:42:31;;;;;;;;;8.50;8.50;;;;;;;;4977280;28;45350;-75
2023/04/25 09:44:57;;;;;;;;;4.50;4.50;;;;;;;;4977433;28;45531;-74
2023/04/25 09:47:23;;;;;;;;;12.00;8.50;;;;;;;;4977185;28;45456;-74
2023/04/25 09:49:49;;;;;;;;;10.50;8.75;;;;;;;;4959118;28;45586;-74
2023/04/25 09:52:16;;;;;;;;;8.00;8.00;;;;;;;;4973937;28;45374;-76
2023/04/25 09:54:41;;;;;;;;;11.50;9.00;;;;;;;;4977556;28;45325;-75
2023/04/25 09:57:11;;;;;;;;;12.50;8.25;;;;;;;;4977350;28;45263;-75
2023/04/25 09:59:38;;;;;;;;;10.00;6.00;;;;;;;;4977369;28;46117;-74
2023/04/25 10:02:03;;;;;;;;;6.00;6.00;;;;;;;;4977107;28;45355;-75
2023/04/25 10:04:34;;;;;;;;;8.50;8.50;;;;;;;;4976997;28;45331;-75
2023/04/25 10:07:00;;;;;;;;;6.25;6.00;;;;;;;;4977043;28;45382;-74
2023/04/25 10:09:25;;;;;;;;;9.50;8.00;;;;;;;;4976891;28;46065;-75
2023/04/25 10:11:51;;;;;;;;;6.00;5.50;;;;;;;;4977234;28;45755;-75
2023/04/25 10:14:16;;;;;;;;;6.00;6.00;;;;;;;;4977184;28;46050;-75
2023/04/25 10:16:42;;;;;;;;;4.75;4.00;;;;;;;;4975771;28;45514;-75
2023/04/25 10:19:07;;;;;;;;;6.00;6.00;;;;;;;;4976975;28;45512;-75
2023/04/25 10:21:33;;;;;;;;;10.00;6.50;;;;;;;;4977004;28;45428;-75
2023/04/25 10:23:59;;;;;;;;;3.75;2.25;;;;;;;;4977656;28;45374;-75
2023/04/25 10:26:24;;;;;;;;;5.25;5.25;;;;;;;;4977288;28;45338;-75
2023/04/25 10:29:00;;;;;;;;;6.75;5.75;;;;;;;;4976706;28;45474;-75
2023/04/25 10:31:26;;;;;;;;;4.25;4.00;;;;;;;;4976691;28;45436;-75
2023/04/25 10:33:51;;;;;;;;;5.50;5.50;;;;;;;;4976972;28;45357;-74
2023/04/25 10:36:22;;;;;;;;;6.00;6.00;;;;;;;;4976193;28;45457;-76
2023/04/25 10:38:48;;;;;;;;;6.50;6.50;;;;;;;;4976576;28;45439;-75
2023/04/25 10:41:14;;;;;;;;;5.50;5.50;;;;;;;;4976563;28;45432;-75
2023/04/25 10:43:43;;;;;;;;;7.00;7.00;;;;;;;;4976299;28;45433;-75
2023/04/25 10:46:27;;;;;;;;;6.00;6.00;;;;;;;;4976466;28;45348;-75
2023/04/25 10:48:53;;;;;;;;;8.00;6.00;;;;;;;;4965877;28;47191;-76
2023/04/25 10:51:22;;;;;;;;;7.00;4.25;;;;;;;;4976223;28;45334;-75
2023/04/25 10:54:06;;;;;;;;;4.25;4.25;;;;;;;;4976474;28;45322;-75
2023/04/25 10:56:43;;;;;;;;;5.75;4.75;;;;;;;;4976498;28;45507;-75
2023/04/25 10:59:11;;;;;;;;;6.00;6.00;;;;;;;;4976122;28;45977;-76
2023/04/25 11:01:46;;;;;;;;;4.00;4.00;;;;;;;;4976277;28;45295;-75
2023/04/25 11:04:21;;;;;;;;;5.75;5.75;;;;;;;;4975996;28;45453;-75
2023/04/25 11:06:54;;;;;;;;;6.00;4.00;;;;;;;;4974560;28;45326;-74
2023/04/25 11:09:23;;;;;;;;;5.75;5.75;;;;;;;;4976151;28;45433;-74
2023/04/25 11:11:55;;;;;;;;;5.25;5.25;;;;;;;;4976246;28;45398;-75
2023/04/25 11:14:20;;;;;;;;;11.75;5.00;;;;;;;;4974948;28;45416;-75
2023/04/25 11:16:45;;;;;;;;;8.00;7.00;;;;;;;;4974836;28;45341;-74
2023/04/25 11:19:11;;;;;;;;;4.75;4.75;;;;;;;;4975743;28;45955;-74
2023/04/25 11:21:36;;;;;;;;;5.00;4.50;;;;;;;;4976088;28;45313;-75
2023/04/25 11:24:02;;;;;;;;;5.75;5.50;;;;;;;;4975767;28;45270;-74
2023/04/25 11:26:27;;;;;;;;;3.75;3.75;;;;;;;;4976266;28;45231;-75
2023/04/25 11:28:56;;;;;;;;;5.00;5.00;;;;;;;;4975810;28;45261;-75
2023/04/25 11:31:22;;;;;;;;;6.75;5.00;;;;;;;;4975913;28;45319;-75
2023/04/25 11:33:47;;;;;;;;;8.25;5.25;;;;;;;;4976061;28;45326;-74
2023/04/25 11:36:12;;;;;;;;;4.75;2.25;;;;;;;;4975877;28;45311;-74
2023/04/25 11:38:37;;;;;;;;;6.75;5.00;;;;;;;;4975894;28;45330;-76
2023/04/25 11:41:03;;;;;;;;;8.50;4.75;;;;;;;;4975836;28;45251;-75
2023/04/25 11:43:28;;;;;;;;;7.00;5.75;;;;;;;;4975803;28;45215;-75
2023/04/25 11:45:53;;;;;;;;;5.25;5.25;;;;;;;;4976312;28;45346;-75
2023/04/25 11:48:19;;;;;;;;;5.75;5.75;;;;;;;;4981331;28;47616;-76
2023/04/25 11:50:44;;;;;;;;;6.25;6.25;;;;;;;;4982009;28;45333;-76
2023/04/25 11:53:10;;;;;;;;;5.00;5.00;;;;;;;;4982394;28;45373;-74
2023/04/25 11:55:36;;;;;;;;;5.00;5.00;;;;;;;;4982425;28;45388;-75
2023/04/25 11:58:02;;;;;;;;;5.00;5.00;;;;;;;;4982133;28;45463;-75
2023/04/25 12:00:27;;;;;;;;;6.25;6.25;;;;;;;;4982440;28;45429;-75
2023/04/25 12:02:53;;;;;;;;;5.75;5.75;;;;;;;;4982699;28;45416;-75
2023/04/25 12:05:20;;;;;;;;;6.50;6.50;;;;;;;;4982741;28;45437;-75
2023/04/25 12:07:46;;;;;;;;;7.00;7.00;;;;;;;;4982428;28;45472;-75
2023/04/25 12:10:12;;;;;;;;;5.50;4.50;;;;;;;;4983351;28;45432;-76
2023/04/25 12:12:40;;;;;;;;;8.00;7.00;;;;;;;;4984749;28;45366;-75
2023/04/25 12:15:24;;;;;;;;;8.00;6.75;;;;;;;;4984448;28;45306;-74
2023/04/25 12:17:50;;;;;;;;;9.25;7.00;;;;;;;;4983839;28;46444;-75
2023/04/25 12:20:17;;;;;;;;;10.00;6.50;;;;;;;;4984117;28;45272;-75
2023/04/25 12:22:47;;;;;;;;;8.25;6.25;;;;;;;;4984508;28;45338;-74
2023/04/25 12:25:32;;;;;;;;;9.00;8.75;;;;;;;;4982104;28;45385;-75
2023/04/25 12:28:19;;;;;;;;;6.75;5.25;;;;;;;;4977429;28;46239;-74
2023/04/25 12:30:54;;;;;;;;;5.00;4.00;;;;;;;;4981405;28;45294;-76
2023/04/25 12:33:20;;;;;;;;;4.25;4.25;;;;;;;;4981765;28;45346;-76
2023/04/25 12:35:45;;;;;;;;;6.75;6.75;;;;;;;;4981631;28;45368;-76
2023/04/25 12:38:11;;;;;;;;;6.75;6.50;;;;;;;;4981622;28;45389;-75
2023/04/25 12:40:36;;;;;;;;;6.75;6.75;;;;;;;;4980130;28;45492;-75
2023/04/25 12:43:01;;;;;;;;;7.00;5.00;;;;;;;;4981474;28;45354;-74
2023/04/25 12:45:26;;;;;;;;;3.00;3.00;;;;;;;;4981587;28;45343;-75
2023/04/25 12:47:52;;;;;;;;;6.50;5.50;;;;;;;;4980112;28;45481;-75
2023/04/25 12:50:17;;;;;;;;;8.00;8.00;;;;;;;;4961151;28;45306;-75
2023/04/25 12:52:42;;;;;;;;;4.75;4.75;;;;;;;;4981408;28;45246;-76
2023/04/25 12:55:07;;;;;;;;;4.00;4.00;;;;;;;;4981909;28;45329;-75
2023/04/25 12:57:32;;;;;;;;;8.25;7.50;;;;;;;;4981037;28;46002;-75
2023/04/25 12:59:58;;;;;;;;;5.00;5.00;;;;;;;;4978409;28;45304;-75
2023/04/25 13:02:23;;;;;;;;;10.25;8.25;;;;;;;;4977872;28;45389;-75
2023/04/25 13:04:48;;;;;;;;;4.50;4.50;;;;;;;;4978402;28;45601;-75
2023/04/25 13:07:13;;;;;;;;;4.75;4.75;;;;;;;;4978156;28;46111;-75
2023/04/25 13:09:38;;;;;;;;;4.75;4.75;;;;;;;;4978086;28;45294;-75
2023/04/25 13:12:04;;;;;;;;;4.50;4.50;;;;;;;;4978130;28;45251;-75
2023/04/25 13:14:29;;;;;;;;;5.75;5.75;;;;;;;;4978170;28;45271;-75
2023/04/25 13:16:54;;;;;;;;;4.75;4.75;;;;;;;;4977616;28;45376;-75
2023/04/25 13:19:20;;;;;;;;;5.00;4.00;;;;;;;;4977756;28;45420;-75
2023/04/25 13:21:45;;;;;;;;;6.50;4.25;;;;;;;;4977951;28;45451;-76
2023/04/25 13:24:10;;;;;;;;;5.75;4.00;;;;;;;;4976589;28;45659;-75
2023/04/25 13:26:35;;;;;;;;;7.25;6.00;;;;;;;;4977714;28;46240;-75
2023/04/25 13:29:03;;;;;;;;;3.25;3.25;;;;;;;;4976418;28;45319;-75
2023/04/25 13:31:28;;;;;;;;;4.50;3.25;;;;;;;;4977785;28;45417;-75
2023/04/25 13:33:53;;;;;;;;;5.50;4.25;;;;;;;;4976760;28;45329;-75
2023/04/25 13:36:18;;;;;;;;;3.50;3.50;;;;;;;;4976845;28;46224;-75
2023/04/25 13:38:47;;;;;;;;;4.25;4.00;;;;;;;;4977849;28;45486;-76
2023/04/25 13:41:17;;;;;;;;;3.25;3.25;;;;;;;;4977825;28;45405;-75
2023/04/25 13:43:42;;;;;;;;;6.50;5.00;;;;;;;;4977198;28;45645;-75
2023/04/25 13:46:07;;;;;;;;;6.50;5.00;;;;;;;;4977164;28;46259;-75
2023/04/25 13:48:33;;;;;;;;;6.00;6.00;;;;;;;;4970877;28;45365;-74
2023/04/25 13:50:58;;;;;;;;;4.00;4.00;;;;;;;;4957915;28;45425;-75
2023/04/25 13:53:23;;;;;;;;;6.00;4.50;;;;;;;;4958180;28;45311;-76
2023/04/25 13:55:48;;;;;;;;;6.50;5.75;;;;;;;;4957613;28;45406;-75
2023/04/25 13:58:13;;;;;;;;;4.75;3.75;;;;;;;;4956582;28;46053;-75
2023/04/25 14:00:39;;;;;;;;;5.00;3.75;;;;;;;;4977366;28;45361;-75
2023/04/25 14:03:07;;;;;;;;;3.50;3.50;;;;;;;;4977495;28;45305;-75
2023/04/25 14:05:32;;;;;;;;;4.00;4.00;;;;;;;;4977312;28;46159;-76
2023/04/25 14:07:58;;;;;;;;;9.50;4.50;;;;;;;;4977163;28;45402;-75
2023/04/25 14:10:23;;;;;;;;;4.00;4.00;;;;;;;;4976442;28;45439;-75
2023/04/25 14:12:48;;;;;;;;;4.00;4.00;;;;;;;;4976954;28;45482;-75
2023/04/25 14:15:14;;;;;;;;;4.00;4.00;;;;;;;;4977343;28;46224;-75
2023/04/25 14:17:39;;;;;;;;;5.00;5.00;;;;;;;;4976698;28;45328;-75
2023/04/25 14:20:05;;;;;;;;;3.00;3.00;;;;;;;;4977033;28;45399;-75
2023/04/25 14:22:30;;;;;;;;;3.50;3.50;;;;;;;;4976917;28;45506;-76
2023/04/25 14:24:56;;;;;;;;;5.75;4.50;;;;;;;;4977042;28;46046;-76
2023/04/25 14:27:21;;;;;;;;;5.25;5.25;;;;;;;;4975216;28;45543;-75